Clover Bottom, Kentucky
Current Conditions -  °F | °C
As of 4:55 AM on Thursday 29 Jan 2015 (Local Time) from KI39 Reporting Station
Clear Clear  
Wind Chill: 31°   Ceiling: Unl
Heat Index: 39°   Visibility: 10mi
Dew Point: 16°   Wind: 15mph
Humidity: 39%   Direction: 190°S
Pressure: 30.05"   Gusts: 21mph
Location:  37.4446°N, 84.0227°W
Report Text: KI39 290955Z AUTO 19013G18KT 10SM CLR 04/M09 A3005 RMK AO2
Loading
Personal Weather Stations






























Interactive Weather Map New forecast layout! Learn more

10-Day Weather Forecast

Advertisements
Track Severe Weather on mobile